sensor_id;sensor_type;location;lat;lon;timestamp;P1;durP1;ratioP1;P2;durP2;ratioP2
66429;SDS011;53242;51.694;10.006;2023-11-18T00:00:37;16.33;;;6.20;;
66429;SDS011;53242;51.694;10.006;2023-11-18T00:02:59;17.95;;;6.38;;
66429;SDS011;53242;51.694;10.006;2023-11-18T00:05:22;15.55;;;5.93;;
66429;SDS011;53242;51.694;10.006;2023-11-18T00:07:45;16.48;;;6.05;;
66429;SDS011;53242;51.694;10.006;2023-11-18T00:10:08;14.77;;;6.15;;
66429;SDS011;53242;51.694;10.006;2023-11-18T00:12:31;17.75;;;5.88;;
66429;SDS011;53242;51.694;10.006;2023-11-18T00:14:53;17.02;;;6.07;;
66429;SDS011;53242;51.694;10.006;2023-11-18T00:17:15;14.82;;;6.13;;
66429;SDS011;53242;51.694;10.006;2023-11-18T00:19:38;16.40;;;6.05;;
66429;SDS011;53242;51.694;10.006;2023-11-18T00:22:00;17.95;;;6.28;;
66429;SDS011;53242;51.694;10.006;2023-11-18T00:24:23;17.08;;;6.53;;
66429;SDS011;53242;51.694;10.006;2023-11-18T00:26:46;16.67;;;5.45;;
66429;SDS011;53242;51.694;10.006;2023-11-18T00:29:09;17.98;;;6.28;;
66429;SDS011;53242;51.694;10.006;2023-11-18T00:31:31;18.40;;;6.18;;
66429;SDS011;53242;51.694;10.006;2023-11-18T00:33:54;17.05;;;6.15;;
66429;SDS011;53242;51.694;10.006;2023-11-18T00:36:16;18.10;;;5.75;;
66429;SDS011;53242;51.694;10.006;2023-11-18T00:38:38;15.20;;;6.22;;
66429;SDS011;53242;51.694;10.006;2023-11-18T00:41:01;18.60;;;5.57;;
66429;SDS011;53242;51.694;10.006;2023-11-18T00:43:24;20.95;;;8.45;;
66429;SDS011;53242;51.694;10.006;2023-11-18T00:45:46;19.13;;;6.38;;
66429;SDS011;53242;51.694;10.006;2023-11-18T00:48:09;17.75;;;6.55;;
66429;SDS011;53242;51.694;10.006;2023-11-18T00:50:31;14.85;;;5.20;;
66429;SDS011;53242;51.694;10.006;2023-11-18T00:52:56;18.88;;;6.43;;
66429;SDS011;53242;51.694;10.006;2023-11-18T00:55:18;16.42;;;5.80;;
66429;SDS011;53242;51.694;10.006;2023-11-18T00:57:41;15.35;;;5.40;;
66429;SDS011;53242;51.694;10.006;2023-11-18T01:00:05;17.08;;;5.45;;
66429;SDS011;53242;51.694;10.006;2023-11-18T01:02:30;14.90;;;5.90;;
66429;SDS011;53242;51.694;10.006;2023-11-18T01:04:53;17.27;;;5.38;;
66429;SDS011;53242;51.694;10.006;2023-11-18T01:07:16;16.42;;;5.82;;
66429;SDS011;53242;51.694;10.006;2023-11-18T01:09:38;15.98;;;6.00;;
66429;SDS011;53242;51.694;10.006;2023-11-18T01:12:01;17.55;;;6.20;;
66429;SDS011;53242;51.694;10.006;2023-11-18T01:14:23;18.40;;;6.35;;
66429;SDS011;53242;51.694;10.006;2023-11-18T01:16:46;17.35;;;6.63;;
66429;SDS011;53242;51.694;10.006;2023-11-18T01:19:08;21.17;;;6.20;;
66429;SDS011;53242;51.694;10.006;2023-11-18T01:21:31;18.58;;;5.90;;
66429;SDS011;53242;51.694;10.006;2023-11-18T01:23:53;19.20;;;7.70;;
66429;SDS011;53242;51.694;10.006;2023-11-18T01:26:16;20.15;;;6.68;;
66429;SDS011;53242;51.694;10.006;2023-11-18T01:28:38;21.95;;;7.13;;
66429;SDS011;53242;51.694;10.006;2023-11-18T01:31:04;19.98;;;7.22;;
66429;SDS011;53242;51.694;10.006;2023-11-18T01:33:27;20.33;;;7.05;;
66429;SDS011;53242;51.694;10.006;2023-11-18T01:35:49;19.55;;;6.72;;
66429;SDS011;53242;51.694;10.006;2023-11-18T01:38:12;24.13;;;7.82;;
66429;SDS011;53242;51.694;10.006;2023-11-18T01:40:34;19.48;;;7.63;;
66429;SDS011;53242;51.694;10.006;2023-11-18T01:42:57;21.83;;;6.88;;
66429;SDS011;53242;51.694;10.006;2023-11-18T01:45:19;20.63;;;7.93;;
66429;SDS011;53242;51.694;10.006;2023-11-18T01:47:42;25.58;;;8.85;;
66429;SDS011;53242;51.694;10.006;2023-11-18T01:50:06;24.65;;;7.80;;
66429;SDS011;53242;51.694;10.006;2023-11-18T01:52:31;22.08;;;6.93;;
66429;SDS011;53242;51.694;10.006;2023-11-18T01:54:53;26.63;;;8.70;;
66429;SDS011;53242;51.694;10.006;2023-11-18T01:57:17;29.05;;;9.07;;
66429;SDS011;53242;51.694;10.006;2023-11-18T01:59:39;22.90;;;7.50;;
66429;SDS011;53242;51.694;10.006;2023-11-18T02:02:02;26.77;;;8.90;;
66429;SDS011;53242;51.694;10.006;2023-11-18T02:04:25;22.00;;;8.23;;
66429;SDS011;53242;51.694;10.006;2023-11-18T02:06:48;24.63;;;8.73;;
66429;SDS011;53242;51.694;10.006;2023-11-18T02:09:11;23.80;;;8.52;;
66429;SDS011;53242;51.694;10.006;2023-11-18T02:12:38;30.23;;;9.75;;
66429;SDS011;53242;51.694;10.006;2023-11-18T02:14:27;29.75;;;8.52;;
66429;SDS011;53242;51.694;10.006;2023-11-18T02:16:51;27.50;;;8.90;;
66429;SDS011;53242;51.694;10.006;2023-11-18T02:19:21;27.55;;;7.85;;
66429;SDS011;53242;51.694;10.006;2023-11-18T02:21:46;28.75;;;8.52;;
66429;SDS011;53242;51.694;10.006;2023-11-18T02:24:09;26.33;;;8.43;;
66429;SDS011;53242;51.694;10.006;2023-11-18T02:26:32;21.38;;;7.97;;
66429;SDS011;53242;51.694;10.006;2023-11-18T02:28:54;25.05;;;8.25;;
66429;SDS011;53242;51.694;10.006;2023-11-18T02:31:20;23.20;;;7.97;;
66429;SDS011;53242;51.694;10.006;2023-11-18T02:36:58;24.98;;;8.18;;
66429;SDS011;53242;51.694;10.006;2023-11-18T02:39:08;27.67;;;8.50;;
66429;SDS011;53242;51.694;10.006;2023-11-18T02:41:38;26.65;;;8.35;;
66429;SDS011;53242;51.694;10.006;2023-11-18T02:44:03;26.63;;;8.98;;
66429;SDS011;53242;51.694;10.006;2023-11-18T02:46:30;29.80;;;9.55;;
66429;SDS011;53242;51.694;10.006;2023-11-18T02:48:53;26.48;;;7.75;;
66429;SDS011;53242;51.694;10.006;2023-11-18T02:51:16;32.92;;;9.15;;
66429;SDS011;53242;51.694;10.006;2023-11-18T02:53:39;25.70;;;8.75;;
66429;SDS011;53242;51.694;10.006;2023-11-18T02:56:03;34.47;;;11.90;;
66429;SDS011;53242;51.694;10.006;2023-11-18T02:58:26;29.55;;;8.80;;
66429;SDS011;53242;51.694;10.006;2023-11-18T03:00:49;33.40;;;10.82;;
66429;SDS011;53242;51.694;10.006;2023-11-18T03:03:12;34.53;;;10.38;;
66429;SDS011;53242;51.694;10.006;2023-11-18T03:05:36;34.30;;;10.38;;
66429;SDS011;53242;51.694;10.006;2023-11-18T03:07:59;32.50;;;10.68;;
66429;SDS011;53242;51.694;10.006;2023-11-18T03:10:21;34.83;;;9.50;;
66429;SDS011;53242;51.694;10.006;2023-11-18T03:12:44;36.03;;;10.23;;
66429;SDS011;53242;51.694;10.006;2023-11-18T03:15:08;32.92;;;9.90;;
66429;SDS011;53242;51.694;10.006;2023-11-18T03:17:31;34.20;;;10.70;;
66429;SDS011;53242;51.694;10.006;2023-11-18T03:19:53;34.28;;;10.30;;
66429;SDS011;53242;51.694;10.006;2023-11-18T03:22:16;34.45;;;9.82;;
66429;SDS011;53242;51.694;10.006;2023-11-18T03:24:38;37.20;;;10.77;;
66429;SDS011;53242;51.694;10.006;2023-11-18T03:27:01;43.63;;;10.80;;
66429;SDS011;53242;51.694;10.006;2023-11-18T03:29:23;34.13;;;10.48;;
66429;SDS011;53242;51.694;10.006;2023-11-18T03:31:45;33.58;;;10.15;;
66429;SDS011;53242;51.694;10.006;2023-11-18T03:34:10;40.88;;;12.27;;
66429;SDS011;53242;51.694;10.006;2023-11-18T03:36:32;38.97;;;12.25;;
66429;SDS011;53242;51.694;10.006;2023-11-18T03:38:55;44.63;;;14.85;;
66429;SDS011;53242;51.694;10.006;2023-11-18T03:41:18;46.83;;;14.60;;
66429;SDS011;53242;51.694;10.006;2023-11-18T03:43:40;46.55;;;13.25;;
66429;SDS011;53242;51.694;10.006;2023-11-18T03:46:03;45.53;;;14.13;;
66429;SDS011;53242;51.694;10.006;2023-11-18T03:48:25;40.92;;;11.55;;
66429;SDS011;53242;51.694;10.006;2023-11-18T03:50:48;32.50;;;10.45;;
66429;SDS011;53242;51.694;10.006;2023-11-18T03:53:10;35.53;;;10.77;;
66429;SDS011;53242;51.694;10.006;2023-11-18T03:55:33;36.13;;;11.23;;
66429;SDS011;53242;51.694;10.006;2023-11-18T03:57:55;35.33;;;10.48;;
66429;SDS011;53242;51.694;10.006;2023-11-18T04:00:19;33.97;;;10.50;;
66429;SDS011;53242;51.694;10.006;2023-11-18T04:02:42;33.33;;;10.68;;
66429;SDS011;53242;51.694;10.006;2023-11-18T04:05:04;36.80;;;11.07;;
66429;SDS011;53242;51.694;10.006;2023-11-18T04:07:27;29.73;;;9.73;;
66429;SDS011;53242;51.694;10.006;2023-11-18T04:09:50;29.13;;;9.02;;
66429;SDS011;53242;51.694;10.006;2023-11-18T04:12:14;29.27;;;9.82;;
66429;SDS011;53242;51.694;10.006;2023-11-18T04:14:38;35.60;;;10.40;;
66429;SDS011;53242;51.694;10.006;2023-11-18T04:17:00;31.95;;;10.48;;
66429;SDS011;53242;51.694;10.006;2023-11-18T04:19:23;27.80;;;8.38;;
66429;SDS011;53242;51.694;10.006;2023-11-18T04:21:46;31.88;;;9.15;;
66429;SDS011;53242;51.694;10.006;2023-11-18T04:24:11;25.60;;;9.13;;
66429;SDS011;53242;51.694;10.006;2023-11-18T04:26:33;25.42;;;9.00;;
66429;SDS011;53242;51.694;10.006;2023-11-18T04:28:55;29.17;;;8.90;;
66429;SDS011;53242;51.694;10.006;2023-11-18T04:31:18;26.35;;;9.60;;
66429;SDS011;53242;51.694;10.006;2023-11-18T04:33:40;25.08;;;9.05;;
66429;SDS011;53242;51.694;10.006;2023-11-18T04:36:03;25.05;;;9.35;;
66429;SDS011;53242;51.694;10.006;2023-11-18T04:38:27;24.88;;;8.02;;
66429;SDS011;53242;51.694;10.006;2023-11-18T04:40:50;23.08;;;8.73;;
66429;SDS011;53242;51.694;10.006;2023-11-18T04:43:12;23.65;;;8.15;;
66429;SDS011;53242;51.694;10.006;2023-11-18T04:45:35;25.08;;;9.18;;
66429;SDS011;53242;51.694;10.006;2023-11-18T04:47:57;21.95;;;8.40;;
66429;SDS011;53242;51.694;10.006;2023-11-18T04:50:21;22.55;;;8.48;;
66429;SDS011;53242;51.694;10.006;2023-11-18T04:52:43;26.90;;;9.05;;
66429;SDS011;53242;51.694;10.006;2023-11-18T04:55:06;25.05;;;8.65;;
66429;SDS011;53242;51.694;10.006;2023-11-18T04:57:29;26.38;;;8.45;;
66429;SDS011;53242;51.694;10.006;2023-11-18T04:59:51;24.33;;;8.52;;
66429;SDS011;53242;51.694;10.006;2023-11-18T05:02:14;24.30;;;9.07;;
66429;SDS011;53242;51.694;10.006;2023-11-18T05:04:36;24.02;;;8.25;;
66429;SDS011;53242;51.694;10.006;2023-11-18T05:06:59;21.73;;;7.85;;
66429;SDS011;53242;51.694;10.006;2023-11-18T05:09:21;23.73;;;8.57;;
66429;SDS011;53242;51.694;10.006;2023-11-18T05:11:43;18.77;;;6.70;;
66429;SDS011;53242;51.694;10.006;2023-11-18T05:14:07;20.42;;;6.60;;
66429;SDS011;53242;51.694;10.006;2023-11-18T05:16:29;22.20;;;7.38;;
66429;SDS011;53242;51.694;10.006;2023-11-18T05:18:52;22.00;;;7.22;;
66429;SDS011;53242;51.694;10.006;2023-11-18T05:21:15;19.42;;;7.72;;
66429;SDS011;53242;51.694;10.006;2023-11-18T05:23:38;20.08;;;7.28;;
66429;SDS011;53242;51.694;10.006;2023-11-18T05:26:00;20.70;;;7.75;;
66429;SDS011;53242;51.694;10.006;2023-11-18T05:28:23;21.10;;;7.43;;
66429;SDS011;53242;51.694;10.006;2023-11-18T05:30:46;22.75;;;8.02;;
66429;SDS011;53242;51.694;10.006;2023-11-18T05:33:09;25.75;;;8.75;;
66429;SDS011;53242;51.694;10.006;2023-11-18T05:35:33;21.92;;;7.70;;
66429;SDS011;53242;51.694;10.006;2023-11-18T05:37:57;17.63;;;6.38;;
66429;SDS011;53242;51.694;10.006;2023-11-18T05:40:19;20.73;;;7.75;;
66429;SDS011;53242;51.694;10.006;2023-11-18T05:42:42;21.92;;;6.85;;
66429;SDS011;53242;51.694;10.006;2023-11-18T05:45:06;22.20;;;8.20;;
66429;SDS011;53242;51.694;10.006;2023-11-18T05:47:29;21.42;;;7.13;;
66429;SDS011;53242;51.694;10.006;2023-11-18T05:49:52;21.10;;;7.43;;
66429;SDS011;53242;51.694;10.006;2023-11-18T05:52:15;18.10;;;6.40;;
66429;SDS011;53242;51.694;10.006;2023-11-18T05:54:37;17.65;;;6.70;;
66429;SDS011;53242;51.694;10.006;2023-11-18T05:57:00;16.55;;;6.18;;
66429;SDS011;53242;51.694;10.006;2023-11-18T05:59:22;17.90;;;6.30;;
66429;SDS011;53242;51.694;10.006;2023-11-18T06:01:45;15.68;;;5.88;;
66429;SDS011;53242;51.694;10.006;2023-11-18T06:04:09;17.20;;;6.30;;
66429;SDS011;53242;51.694;10.006;2023-11-18T06:06:32;14.07;;;6.25;;
66429;SDS011;53242;51.694;10.006;2023-11-18T06:08:54;14.20;;;5.40;;
66429;SDS011;53242;51.694;10.006;2023-11-18T06:11:16;15.50;;;5.85;;
66429;SDS011;53242;51.694;10.006;2023-11-18T06:13:50;16.17;;;6.05;;
66429;SDS011;53242;51.694;10.006;2023-11-18T06:16:14;17.88;;;6.22;;
66429;SDS011;53242;51.694;10.006;2023-11-18T06:18:38;17.25;;;5.90;;
66429;SDS011;53242;51.694;10.006;2023-11-18T06:21:00;24.20;;;7.78;;
66429;SDS011;53242;51.694;10.006;2023-11-18T06:23:23;15.50;;;5.80;;
66429;SDS011;53242;51.694;10.006;2023-11-18T06:25:45;14.43;;;6.13;;
66429;SDS011;53242;51.694;10.006;2023-11-18T06:28:07;14.07;;;5.88;;
66429;SDS011;53242;51.694;10.006;2023-11-18T06:30:30;19.42;;;6.50;;
66429;SDS011;53242;51.694;10.006;2023-11-18T06:32:52;20.60;;;7.28;;
66429;SDS011;53242;51.694;10.006;2023-11-18T06:35:15;14.75;;;5.40;;
66429;SDS011;53242;51.694;10.006;2023-11-18T06:37:37;16.13;;;6.15;;
66429;SDS011;53242;51.694;10.006;2023-11-18T06:40:00;15.75;;;6.07;;
66429;SDS011;53242;51.694;10.006;2023-11-18T06:42:22;17.08;;;5.70;;
66429;SDS011;53242;51.694;10.006;2023-11-18T06:44:45;15.90;;;5.28;;
66429;SDS011;53242;51.694;10.006;2023-11-18T06:47:09;14.02;;;5.18;;
66429;SDS011;53242;51.694;10.006;2023-11-18T06:49:34;14.55;;;6.05;;
66429;SDS011;53242;51.694;10.006;2023-11-18T06:51:57;15.77;;;5.45;;
66429;SDS011;53242;51.694;10.006;2023-11-18T06:54:19;15.98;;;5.85;;
66429;SDS011;53242;51.694;10.006;2023-11-18T06:56:42;14.13;;;5.68;;
66429;SDS011;53242;51.694;10.006;2023-11-18T06:59:05;15.38;;;5.15;;
66429;SDS011;53242;51.694;10.006;2023-11-18T07:01:32;17.15;;;6.10;;
66429;SDS011;53242;51.694;10.006;2023-11-18T07:03:56;12.85;;;5.35;;
66429;SDS011;53242;51.694;10.006;2023-11-18T07:06:18;16.55;;;6.90;;
66429;SDS011;53242;51.694;10.006;2023-11-18T07:08:45;14.57;;;6.38;;
66429;SDS011;53242;51.694;10.006;2023-11-18T07:11:07;15.13;;;5.22;;
66429;SDS011;53242;51.694;10.006;2023-11-18T07:13:30;15.32;;;5.45;;
66429;SDS011;53242;51.694;10.006;2023-11-18T07:15:53;17.95;;;5.95;;
66429;SDS011;53242;51.694;10.006;2023-11-18T07:18:19;14.98;;;5.82;;
66429;SDS011;53242;51.694;10.006;2023-11-18T07:20:44;19.92;;;6.20;;
66429;SDS011;53242;51.694;10.006;2023-11-18T07:23:06;15.95;;;5.93;;
66429;SDS011;53242;51.694;10.006;2023-11-18T07:25:30;17.15;;;6.63;;
66429;SDS011;53242;51.694;10.006;2023-11-18T07:27:53;17.70;;;5.95;;
66429;SDS011;53242;51.694;10.006;2023-11-18T07:30:15;21.42;;;7.97;;
66429;SDS011;53242;51.694;10.006;2023-11-18T07:32:38;17.75;;;7.43;;
66429;SDS011;53242;51.694;10.006;2023-11-18T07:35:02;21.52;;;6.68;;
66429;SDS011;53242;51.694;10.006;2023-11-18T07:37:24;18.65;;;6.07;;
66429;SDS011;53242;51.694;10.006;2023-11-18T07:39:48;17.48;;;6.90;;
66429;SDS011;53242;51.694;10.006;2023-11-18T07:42:11;16.52;;;6.32;;
66429;SDS011;53242;51.694;10.006;2023-11-18T07:44:34;19.58;;;6.47;;
66429;SDS011;53242;51.694;10.006;2023-11-18T07:46:56;18.50;;;7.50;;
66429;SDS011;53242;51.694;10.006;2023-11-18T07:49:19;21.20;;;7.00;;
66429;SDS011;53242;51.694;10.006;2023-11-18T07:51:41;39.20;;;14.82;;
66429;SDS011;53242;51.694;10.006;2023-11-18T07:54:04;31.27;;;9.20;;
66429;SDS011;53242;51.694;10.006;2023-11-18T07:56:26;31.25;;;8.73;;
66429;SDS011;53242;51.694;10.006;2023-11-18T07:58:50;23.92;;;8.02;;
66429;SDS011;53242;51.694;10.006;2023-11-18T08:01:14;19.85;;;8.32;;
66429;SDS011;53242;51.694;10.006;2023-11-18T08:03:39;20.10;;;7.78;;
66429;SDS011;53242;51.694;10.006;2023-11-18T08:06:05;21.75;;;8.55;;
66429;SDS011;53242;51.694;10.006;2023-11-18T08:08:29;19.85;;;8.27;;
66429;SDS011;53242;51.694;10.006;2023-11-18T08:10:51;19.55;;;7.82;;
66429;SDS011;53242;51.694;10.006;2023-11-18T08:13:15;25.23;;;10.90;;
66429;SDS011;53242;51.694;10.006;2023-11-18T08:15:38;20.25;;;8.18;;
66429;SDS011;53242;51.694;10.006;2023-11-18T08:18:02;22.73;;;9.45;;
66429;SDS011;53242;51.694;10.006;2023-11-18T08:20:25;20.40;;;7.70;;
66429;SDS011;53242;51.694;10.006;2023-11-18T08:22:47;20.02;;;7.43;;
66429;SDS011;53242;51.694;10.006;2023-11-18T08:25:10;20.75;;;7.70;;
66429;SDS011;53242;51.694;10.006;2023-11-18T08:27:34;19.92;;;8.27;;
66429;SDS011;53242;51.694;10.006;2023-11-18T08:29:57;23.80;;;7.85;;
66429;SDS011;53242;51.694;10.006;2023-11-18T08:32:20;21.10;;;8.23;;
66429;SDS011;53242;51.694;10.006;2023-11-18T08:34:42;22.30;;;8.38;;
66429;SDS011;53242;51.694;10.006;2023-11-18T08:37:05;20.83;;;6.63;;
66429;SDS011;53242;51.694;10.006;2023-11-18T08:39:29;22.30;;;7.90;;
66429;SDS011;53242;51.694;10.006;2023-11-18T08:41:52;16.80;;;7.00;;
66429;SDS011;53242;51.694;10.006;2023-11-18T08:44:15;18.65;;;7.45;;
66429;SDS011;53242;51.694;10.006;2023-11-18T08:46:37;20.80;;;7.45;;
66429;SDS011;53242;51.694;10.006;2023-11-18T08:48:59;18.45;;;6.95;;
66429;SDS011;53242;51.694;10.006;2023-11-18T08:51:31;24.30;;;9.57;;
66429;SDS011;53242;51.694;10.006;2023-11-18T08:53:55;21.60;;;8.65;;
66429;SDS011;53242;51.694;10.006;2023-11-18T08:56:18;21.27;;;7.97;;
66429;SDS011;53242;51.694;10.006;2023-11-18T08:58:45;24.40;;;9.68;;
66429;SDS011;53242;51.694;10.006;2023-11-18T09:01:07;22.02;;;8.70;;
66429;SDS011;53242;51.694;10.006;2023-11-18T09:03:35;28.05;;;10.05;;
66429;SDS011;53242;51.694;10.006;2023-11-18T09:05:58;23.00;;;8.98;;
66429;SDS011;53242;51.694;10.006;2023-11-18T09:08:21;22.98;;;8.68;;
66429;SDS011;53242;51.694;10.006;2023-11-18T09:10:44;22.98;;;8.38;;
66429;SDS011;53242;51.694;10.006;2023-11-18T09:13:06;23.17;;;8.65;;
66429;SDS011;53242;51.694;10.006;2023-11-18T09:15:28;28.15;;;10.05;;
66429;SDS011;53242;51.694;10.006;2023-11-18T09:17:52;21.67;;;8.40;;
66429;SDS011;53242;51.694;10.006;2023-11-18T09:20:15;23.27;;;7.78;;
66429;SDS011;53242;51.694;10.006;2023-11-18T09:22:42;20.20;;;6.68;;
66429;SDS011;53242;51.694;10.006;2023-11-18T09:25:05;18.17;;;6.75;;
66429;SDS011;53242;51.694;10.006;2023-11-18T09:27:31;20.13;;;7.85;;
66429;SDS011;53242;51.694;10.006;2023-11-18T09:29:54;21.30;;;8.23;;
66429;SDS011;53242;51.694;10.006;2023-11-18T09:32:16;28.05;;;8.57;;
66429;SDS011;53242;51.694;10.006;2023-11-18T09:34:40;20.45;;;8.68;;
66429;SDS011;53242;51.694;10.006;2023-11-18T09:37:02;22.20;;;9.20;;
66429;SDS011;53242;51.694;10.006;2023-11-18T09:39:26;25.13;;;8.95;;
66429;SDS011;53242;51.694;10.006;2023-11-18T09:41:51;24.15;;;9.20;;
66429;SDS011;53242;51.694;10.006;2023-11-18T09:44:13;22.73;;;9.35;;
66429;SDS011;53242;51.694;10.006;2023-11-18T09:46:38;18.88;;;6.53;;
66429;SDS011;53242;51.694;10.006;2023-11-18T09:52:02;18.48;;;6.57;;
66429;SDS011;53242;51.694;10.006;2023-11-18T09:54:31;18.73;;;6.45;;
66429;SDS011;53242;51.694;10.006;2023-11-18T09:57:08;21.48;;;7.63;;
66429;SDS011;53242;51.694;10.006;2023-11-18T10:02:48;17.92;;;7.72;;
66429;SDS011;53242;51.694;10.006;2023-11-18T10:05:12;17.48;;;6.78;;
66429;SDS011;53242;51.694;10.006;2023-11-18T10:07:35;18.00;;;7.40;;
66429;SDS011;53242;51.694;10.006;2023-11-18T10:10:00;18.38;;;7.40;;
66429;SDS011;53242;51.694;10.006;2023-11-18T10:12:24;16.13;;;6.45;;
66429;SDS011;53242;51.694;10.006;2023-11-18T10:14:48;15.43;;;5.40;;
66429;SDS011;53242;51.694;10.006;2023-11-18T10:17:14;17.00;;;6.30;;
66429;SDS011;53242;51.694;10.006;2023-11-18T10:19:51;16.63;;;6.38;;
66429;SDS011;53242;51.694;10.006;2023-11-18T10:22:21;16.17;;;6.28;;
66429;SDS011;53242;51.694;10.006;2023-11-18T10:24:45;17.23;;;6.53;;
66429;SDS011;53242;51.694;10.006;2023-11-18T10:27:08;12.00;;;5.47;;
66429;SDS011;53242;51.694;10.006;2023-11-18T10:29:32;11.68;;;4.80;;
66429;SDS011;53242;51.694;10.006;2023-11-18T10:32:04;14.60;;;5.90;;
66429;SDS011;53242;51.694;10.006;2023-11-18T10:34:30;18.00;;;6.50;;
66429;SDS011;53242;51.694;10.006;2023-11-18T10:36:59;15.05;;;6.25;;
66429;SDS011;53242;51.694;10.006;2023-11-18T10:39:28;16.05;;;6.95;;
66429;SDS011;53242;51.694;10.006;2023-11-18T10:41:53;15.40;;;6.68;;
66429;SDS011;53242;51.694;10.006;2023-11-18T10:44:21;14.30;;;6.25;;
66429;SDS011;53242;51.694;10.006;2023-11-18T10:46:52;15.88;;;6.53;;
66429;SDS011;53242;51.694;10.006;2023-11-18T10:49:15;15.07;;;6.05;;
66429;SDS011;53242;51.694;10.006;2023-11-18T10:51:39;14.57;;;5.75;;
66429;SDS011;53242;51.694;10.006;2023-11-18T10:54:03;14.60;;;5.80;;
66429;SDS011;53242;51.694;10.006;2023-11-18T10:56:27;11.75;;;4.75;;
66429;SDS011;53242;51.694;10.006;2023-11-18T10:58:50;12.63;;;4.63;;
66429;SDS011;53242;51.694;10.006;2023-11-18T11:01:13;15.77;;;5.70;;
66429;SDS011;53242;51.694;10.006;2023-11-18T11:03:55;11.15;;;4.43;;
66429;SDS011;53242;51.694;10.006;2023-11-18T11:06:20;11.00;;;4.35;;
66429;SDS011;53242;51.694;10.006;2023-11-18T11:08:45;12.82;;;4.70;;
66429;SDS011;53242;51.694;10.006;2023-11-18T11:13:38;14.60;;;5.75;;
66429;SDS011;53242;51.694;10.006;2023-11-18T11:16:00;22.60;;;9.00;;
66429;SDS011;53242;51.694;10.006;2023-11-18T11:18:28;13.98;;;5.28;;
66429;SDS011;53242;51.694;10.006;2023-11-18T11:24:09;9.68;;;2.88;;
66429;SDS011;53242;51.694;10.006;2023-11-18T11:26:28;9.90;;;3.75;;
66429;SDS011;53242;51.694;10.006;2023-11-18T11:29:27;5.38;;;2.45;;
66429;SDS011;53242;51.694;10.006;2023-11-18T11:32:16;7.28;;;3.40;;
66429;SDS011;53242;51.694;10.006;2023-11-18T11:34:56;11.98;;;5.03;;
66429;SDS011;53242;51.694;10.006;2023-11-18T11:37:29;11.80;;;4.25;;
66429;SDS011;53242;51.694;10.006;2023-11-18T11:39:56;7.82;;;3.13;;
66429;SDS011;53242;51.694;10.006;2023-11-18T11:42:20;10.45;;;4.20;;
66429;SDS011;53242;51.694;10.006;2023-11-18T11:44:45;8.73;;;2.90;;
66429;SDS011;53242;51.694;10.006;2023-11-18T11:47:09;9.02;;;3.40;;
66429;SDS011;53242;51.694;10.006;2023-11-18T11:49:40;6.57;;;2.50;;
66429;SDS011;53242;51.694;10.006;2023-11-18T11:52:18;8.82;;;3.35;;
66429;SDS011;53242;51.694;10.006;2023-11-18T11:54:59;10.43;;;3.80;;
66429;SDS011;53242;51.694;10.006;2023-11-18T11:57:28;11.10;;;3.80;;
66429;SDS011;53242;51.694;10.006;2023-11-18T12:02:17;9.70;;;3.92;;
66429;SDS011;53242;51.694;10.006;2023-11-18T12:04:47;10.57;;;4.28;;
66429;SDS011;53242;51.694;10.006;2023-11-18T12:07:14;12.02;;;3.95;;
66429;SDS011;53242;51.694;10.006;2023-11-18T12:09:37;7.82;;;3.10;;
66429;SDS011;53242;51.694;10.006;2023-11-18T12:12:00;9.93;;;3.58;;
66429;SDS011;53242;51.694;10.006;2023-11-18T12:14:24;10.07;;;4.38;;
66429;SDS011;53242;51.694;10.006;2023-11-18T12:19:30;12.20;;;3.80;;
66429;SDS011;53242;51.694;10.006;2023-11-18T12:21:58;9.80;;;3.40;;
66429;SDS011;53242;51.694;10.006;2023-11-18T12:24:22;9.00;;;3.55;;
66429;SDS011;53242;51.694;10.006;2023-11-18T12:26:45;8.18;;;3.35;;
66429;SDS011;53242;51.694;10.006;2023-11-18T12:31:52;12.90;;;5.40;;
66429;SDS011;53242;51.694;10.006;2023-11-18T12:34:15;11.30;;;5.45;;
66429;SDS011;53242;51.694;10.006;2023-11-18T12:36:56;12.65;;;5.13;;
66429;SDS011;53242;51.694;10.006;2023-11-18T12:42:35;11.80;;;4.90;;
66429;SDS011;53242;51.694;10.006;2023-11-18T12:48:17;11.32;;;5.30;;
66429;SDS011;53242;51.694;10.006;2023-11-18T12:50:48;10.60;;;4.20;;
66429;SDS011;53242;51.694;10.006;2023-11-18T12:53:11;11.32;;;4.65;;
66429;SDS011;53242;51.694;10.006;2023-11-18T12:55:36;12.52;;;4.15;;
66429;SDS011;53242;51.694;10.006;2023-11-18T13:00:24;12.20;;;4.85;;
66429;SDS011;53242;51.694;10.006;2023-11-18T13:02:49;10.32;;;4.35;;
66429;SDS011;53242;51.694;10.006;2023-11-18T13:05:11;11.77;;;5.32;;
66429;SDS011;53242;51.694;10.006;2023-11-18T13:07:35;13.00;;;4.50;;
66429;SDS011;53242;51.694;10.006;2023-11-18T13:09:58;11.02;;;4.72;;
66429;SDS011;53242;51.694;10.006;2023-11-18T13:12:22;12.88;;;4.78;;
66429;SDS011;53242;51.694;10.006;2023-11-18T13:14:46;11.40;;;5.05;;
66429;SDS011;53242;51.694;10.006;2023-11-18T13:17:09;11.20;;;4.28;;
66429;SDS011;53242;51.694;10.006;2023-11-18T13:19:33;13.77;;;5.70;;
66429;SDS011;53242;51.694;10.006;2023-11-18T13:22:00;20.88;;;7.32;;
66429;SDS011;53242;51.694;10.006;2023-11-18T13:24:30;18.65;;;7.22;;
66429;SDS011;53242;51.694;10.006;2023-11-18T13:26:56;13.25;;;4.55;;
66429;SDS011;53242;51.694;10.006;2023-11-18T13:29:20;16.58;;;6.38;;
66429;SDS011;53242;51.694;10.006;2023-11-18T13:31:43;27.52;;;9.25;;
66429;SDS011;53242;51.694;10.006;2023-11-18T13:34:06;24.38;;;8.70;;
66429;SDS011;53242;51.694;10.006;2023-11-18T13:36:29;24.30;;;7.47;;
66429;SDS011;53242;51.694;10.006;2023-11-18T13:38:53;27.55;;;8.88;;
66429;SDS011;53242;51.694;10.006;2023-11-18T13:41:28;19.60;;;7.13;;
66429;SDS011;53242;51.694;10.006;2023-11-18T13:43:51;28.92;;;9.25;;
66429;SDS011;53242;51.694;10.006;2023-11-18T13:46:14;20.85;;;7.32;;
66429;SDS011;53242;51.694;10.006;2023-11-18T13:48:40;22.65;;;10.00;;
66429;SDS011;53242;51.694;10.006;2023-11-18T13:51:03;15.82;;;6.65;;
66429;SDS011;53242;51.694;10.006;2023-11-18T13:53:30;14.95;;;7.15;;
66429;SDS011;53242;51.694;10.006;2023-11-18T13:55:53;13.75;;;6.38;;
66429;SDS011;53242;51.694;10.006;2023-11-18T13:58:16;11.98;;;4.68;;
66429;SDS011;53242;51.694;10.006;2023-11-18T14:00:38;13.80;;;5.30;;
66429;SDS011;53242;51.694;10.006;2023-11-18T14:03:01;11.65;;;3.97;;
66429;SDS011;53242;51.694;10.006;2023-11-18T14:05:28;12.13;;;4.90;;
66429;SDS011;53242;51.694;10.006;2023-11-18T14:07:54;10.85;;;4.80;;
66429;SDS011;53242;51.694;10.006;2023-11-18T14:10:22;10.77;;;5.05;;
66429;SDS011;53242;51.694;10.006;2023-11-18T14:13:00;10.85;;;4.43;;
66429;SDS011;53242;51.694;10.006;2023-11-18T14:15:34;7.97;;;3.25;;
66429;SDS011;53242;51.694;10.006;2023-11-18T14:18:00;10.57;;;4.00;;
66429;SDS011;53242;51.694;10.006;2023-11-18T14:20:23;10.77;;;4.43;;
66429;SDS011;53242;51.694;10.006;2023-11-18T14:22:45;10.25;;;4.88;;
66429;SDS011;53242;51.694;10.006;2023-11-18T14:25:08;10.75;;;4.15;;
66429;SDS011;53242;51.694;10.006;2023-11-18T14:27:30;11.82;;;4.22;;
66429;SDS011;53242;51.694;10.006;2023-11-18T14:29:52;12.45;;;5.07;;
66429;SDS011;53242;51.694;10.006;2023-11-18T14:32:15;12.27;;;6.57;;
66429;SDS011;53242;51.694;10.006;2023-11-18T14:34:37;11.65;;;4.78;;